Terminal Aerodrome Forecast
Issued by NWS

Home | Current Version | Previous Version | Text Only | Print | Product List | Glossary On
Versions: 1 2 3 4 5 6 7 8 9 10 11 12 13 14 15 16 17
000
FTUS43 KDDC 252357
TAFHYS
TAF
KHYS 252357Z 2600/2624 14006KT P6SM SKC
     FM261100 VRB05KT 5SM BR SKC
     FM261400 23010KT P6SM SKC
     FM262100 26010KT P6SM SKC=

USA.gov is the U.S. government's official web portal to all federal, state and local government web resources and services.